Time;durP1;ratioP1;P1;durP2;ratioP2;P2;SDS_P1;SDS_P2;PMS_P1;PMS_P2;Temp;Humidity;BMP_temperature;BMP_pressure;BME280_temperature;BME280_humidity;BME280_pressure;Samples;Min_cycle;Max_cycle;Signal;HPM_P1;HPM_P2
2021/12/09 01:33:50;;;;;;;41.47;13.05;;;;;;;-0.64;100.00;92623.88;4920225;23;20054;-88
2021/12/09 01:36:16;;;;;;;45.78;14.27;;;;;;;-0.79;100.00;92619.31;4892188;29;20044;-89
2021/12/09 01:38:42;;;;;;;37.63;13.05;;;;;;;-0.69;100.00;92628.94;4909355;29;20389;-88
2021/12/09 01:41:07;;;;;;;44.88;13.73;;;;;;;-0.46;100.00;92630.47;4905838;29;20028;-88
2021/12/09 01:43:33;;;;;;;57.75;15.65;;;;;;;-0.86;100.00;92634.94;4904809;29;20032;-88
2021/12/09 01:46:08;;;;;;;51.30;15.98;;;;;;;-0.87;100.00;92640.28;4889401;29;20414;-88
2021/12/09 01:48:39;;;;;;;57.13;16.17;;;;;;;-0.95;100.00;92638.91;4923349;29;20039;-85
2021/12/09 01:51:05;;;;;;;74.63;16.95;;;;;;;-0.96;100.00;92641.75;4923188;29;20428;-85
2021/12/09 01:53:34;;;;;;;59.45;15.80;;;;;;;-1.03;100.00;92642.69;4907656;29;20036;-86
2021/12/09 01:56:02;;;;;;;70.18;16.65;;;;;;;-0.98;100.00;92638.63;4923761;29;20456;-85
2021/12/09 01:58:27;;;;;;;70.13;16.88;;;;;;;-1.01;100.00;92642.44;4907870;29;20032;-86
2021/12/09 02:00:53;;;;;;;72.68;16.38;;;;;;;-0.90;100.00;92635.63;4923436;29;20046;-86
2021/12/09 02:03:19;;;;;;;66.30;17.42;;;;;;;-0.67;100.00;92639.00;4939093;29;20039;-86
2021/12/09 02:05:44;;;;;;;102.35;15.63;;;;;;;-0.80;100.00;92640.91;4923147;29;20036;-86
2021/12/09 02:08:13;;;;;;;60.13;15.57;;;;;;;-0.57;100.00;92636.56;4923083;29;20365;-86
2021/12/09 02:10:39;;;;;;;56.50;14.85;;;;;;;-0.49;100.00;92628.41;4922894;29;20437;-85
2021/12/09 02:13:05;;;;;;;50.40;16.10;;;;;;;-0.47;100.00;92620.44;4907356;29;20042;-85
2021/12/09 02:15:30;;;;;;;117.00;18.98;;;;;;;-0.62;100.00;92621.84;4922990;29;20357;-85
2021/12/09 02:17:56;;;;;;;128.82;16.83;;;;;;;-0.64;100.00;92623.09;4907168;29;20027;-86
2021/12/09 02:20:32;;;;;;;144.85;17.88;;;;;;;-0.79;100.00;92624.47;4939924;29;20027;-85
2021/12/09 02:22:57;;;;;;;75.70;15.73;;;;;;;-0.70;100.00;92622.25;4923548;29;20436;-86
2021/12/09 02:25:23;;;;;;;65.47;15.20;;;;;;;-0.70;100.00;92621.47;4907300;29;20031;-86
2021/12/09 02:27:49;;;;;;;62.45;16.50;;;;;;;-0.73;100.00;92615.78;4922960;29;20070;-86
2021/12/09 02:30:15;;;;;;;89.38;17.77;;;;;;;-0.52;100.00;92623.72;4939535;29;20428;-86
2021/12/09 02:32:41;;;;;;;61.28;16.67;;;;;;;-0.25;100.00;92614.47;4922638;29;20032;-85
2021/12/09 02:35:07;;;;;;;88.85;16.75;;;;;;;-0.29;100.00;92616.75;4922678;29;20035;-86
2021/12/09 02:37:33;;;;;;;91.55;17.98;;;;;;;-0.74;100.00;92619.38;4939875;29;20031;-83
2021/12/09 02:39:59;;;;;;;39.67;14.32;;;;;;;-0.75;100.00;92622.19;4922668;29;20118;-83
2021/12/09 02:42:25;;;;;;;168.10;18.40;;;;;;;-0.84;100.00;92621.84;4922605;29;20102;-83
2021/12/09 02:44:52;;;;;;;70.13;16.48;;;;;;;-0.78;100.00;92623.44;4907041;29;20027;-83
2021/12/09 02:47:18;;;;;;;117.55;19.45;;;;;;;-0.87;100.00;92624.88;4922550;29;20031;-83
2021/12/09 02:49:43;;;;;;;421.10;29.08;;;;;;;-0.78;100.00;92623.44;4922544;29;20087;-83
2021/12/09 02:52:09;;;;;;;131.25;18.27;;;;;;;-0.96;100.00;92618.59;4922766;29;20430;-83
2021/12/09 02:54:34;;;;;;;134.40;22.33;;;;;;;-1.08;100.00;92627.19;4939352;29;20027;-83
2021/12/09 02:57:04;;;;;;;84.68;17.58;;;;;;;-1.04;100.00;92627.50;4922454;29;20087;-83
2021/12/09 02:59:31;;;;;;;57.25;17.98;;;;;;;-0.74;100.00;92634.03;4922477;29;20028;-83
2021/12/09 03:01:58;;;;;;;261.90;26.80;;;;;;;-0.81;100.00;92639.34;4939347;29;20091;-83
2021/12/09 03:04:25;;;;;;;262.65;25.75;;;;;;;-0.78;100.00;92638.13;4922598;29;20095;-83
2021/12/09 03:06:54;;;;;;;67.18;17.05;;;;;;;-0.83;100.00;92625.97;4906535;29;20401;-83
2021/12/09 03:09:19;;;;;;;114.75;18.50;;;;;;;-0.56;100.00;92635.53;4906756;29;20342;-83
2021/12/09 03:11:53;;;;;;;414.92;30.98;;;;;;;-0.66;100.00;92635.41;4922227;29;20094;-83
2021/12/09 03:14:19;;;;;;;62.08;16.98;;;;;;;-0.65;100.00;92644.69;4922392;29;20031;-83
2021/12/09 03:16:44;;;;;;;82.20;18.77;;;;;;;-0.65;100.00;92640.28;4922280;29;20126;-83
2021/12/09 03:19:10;;;;;;;57.22;17.27;;;;;;;-0.57;100.00;92639.13;4922516;29;20111;-83
2021/12/09 03:21:41;;;;;;;80.22;17.60;;;;;;;-0.25;100.00;92645.34;4906643;29;20038;-83
2021/12/09 03:24:11;;;;;;;127.32;20.23;;;;;;;-0.15;100.00;92642.91;4906616;29;20113;-83
2021/12/09 03:26:43;;;;;;;107.68;19.10;;;;;;;-0.34;100.00;92643.22;4922214;29;20027;-83
2021/12/09 03:29:11;;;;;;;55.38;17.67;;;;;;;-0.21;100.00;92636.16;4922172;29;20027;-83
2021/12/09 03:31:42;;;;;;;54.88;16.67;;;;;;;-0.08;100.00;92637.56;4906629;29;20349;-83
2021/12/09 03:34:09;;;;;;;76.95;17.60;;;;;;;-0.08;100.00;92646.03;4922045;29;20082;-83
2021/12/09 03:36:35;;;;;;;52.63;17.08;;;;;;;-0.07;100.00;92646.81;4922118;29;20051;-83
2021/12/09 03:39:05;;;;;;;117.78;18.20;;;;;;;-0.41;100.00;92655.50;4922072;29;20027;-83
2021/12/09 03:41:31;;;;;;;100.82;18.38;;;;;;;-0.35;100.00;92657.13;4922140;29;20034;-83
2021/12/09 03:43:57;;;;;;;48.17;15.15;;;;;;;-0.06;100.00;92650.94;4906351;29;20369;-83
2021/12/09 03:46:22;;;;;;;49.50;14.98;;;;;;;-0.25;100.00;92643.56;4922090;29;20441;-83
2021/12/09 03:48:48;;;;;;;53.42;15.18;;;;;;;-0.50;100.00;92644.06;4922020;29;20039;-83
2021/12/09 03:51:13;;;;;;;48.90;15.32;;;;;;;-0.32;100.00;92651.47;4937958;29;20136;-83
2021/12/09 03:53:39;;;;;;;41.92;14.07;;;;;;;-0.09;100.00;92649.63;4921904;29;20054;-83
2021/12/09 03:56:04;;;;;;;55.25;15.80;;;;;;;-0.27;100.00;92661.06;4938916;29;20345;-83
2021/12/09 03:58:30;;;;;;;54.17;16.55;;;;;;;-0.50;100.00;92660.28;4921965;29;20412;-83
2021/12/09 04:00:56;;;;;;;89.00;17.90;;;;;;;-0.57;100.00;92652.00;4921876;29;20055;-83
2021/12/09 04:03:21;;;;;;;50.85;15.85;;;;;;;-0.35;100.00;92656.31;4907626;29;20083;-83
2021/12/09 04:05:48;;;;;;;58.50;16.50;;;;;;;-0.39;100.00;92662.97;4925329;29;20039;-83
2021/12/09 04:08:14;;;;;;;49.35;16.50;;;;;;;-0.35;100.00;92661.47;4925604;29;20035;-83
2021/12/09 04:10:40;;;;;;;46.90;15.07;;;;;;;-0.09;100.00;92664.31;4925198;29;20028;-83
2021/12/09 04:13:05;;;;;;;50.05;15.45;;;;;;;-0.02;100.00;92664.88;4925129;29;20134;-83
2021/12/09 04:15:31;;;;;;;50.92;15.90;;;;;;;-0.15;100.00;92661.69;4909688;29;20035;-83
2021/12/09 04:17:56;;;;;;;45.72;15.25;;;;;;;-0.13;100.00;92665.84;4925118;29;20053;-83
2021/12/09 04:20:22;;;;;;;65.07;16.60;;;;;;;-0.17;100.00;92668.09;4925050;29;20023;-83
2021/12/09 04:22:49;;;;;;;41.30;15.60;;;;;;;-0.06;100.00;92674.91;4941906;29;20040;-83
2021/12/09 04:25:22;;;;;;;158.40;18.67;;;;;;;-0.16;100.00;92675.56;4925100;29;20357;-83
2021/12/09 04:27:50;;;;;;;67.63;18.38;;;;;;;-0.30;100.00;92679.53;4924977;29;20111;-83
2021/12/09 04:30:16;;;;;;;49.58;16.65;;;;;;;-0.34;100.00;92683.63;4941804;29;20030;-83
2021/12/09 04:32:42;;;;;;;45.63;15.43;;;;;;;-0.34;100.00;92675.91;4924767;29;20340;-83
2021/12/09 04:35:10;;;;;;;219.98;21.10;;;;;;;-0.61;100.00;92672.25;4924808;29;20031;-83
2021/12/09 04:37:35;;;;;;;251.95;21.48;;;;;;;-0.73;100.00;92667.22;4909170;29;20034;-83
2021/12/09 04:40:01;;;;;;;64.03;17.48;;;;;;;-0.66;100.00;92681.72;4908924;29;20032;-83
2021/12/09 04:42:28;;;;;;;53.35;17.83;;;;;;;-0.63;100.00;92678.66;4906725;29;20430;-83
2021/12/09 04:44:54;;;;;;;96.47;18.48;;;;;;;-0.73;100.00;92681.88;4896608;29;20054;-83
2021/12/09 04:47:19;;;;;;;69.97;20.13;;;;;;;-0.97;100.00;92676.94;4910966;29;20019;-83
2021/12/09 04:49:45;;;;;;;99.88;19.95;;;;;;;-0.92;100.00;92679.59;4924377;29;20390;-83
2021/12/09 04:52:10;;;;;;;82.78;18.65;;;;;;;-0.70;100.00;92683.22;4924344;29;20028;-83
2021/12/09 04:54:36;;;;;;;94.00;19.15;;;;;;;-0.59;100.00;92680.50;4924429;29;20110;-83
2021/12/09 04:57:04;;;;;;;394.60;29.98;;;;;;;-0.58;100.00;92681.28;4924741;29;20120;-83
2021/12/09 04:59:38;;;;;;;338.48;27.85;;;;;;;-0.69;100.00;92682.19;4922239;29;20131;-86
2021/12/09 05:02:14;;;;;;;61.35;17.77;;;;;;;-0.30;100.00;92692.41;4925221;29;20035;-86
2021/12/09 05:04:39;;;;;;;57.67;17.10;;;;;;;-0.32;100.00;92687.50;4940086;29;20432;-86
2021/12/09 05:07:05;;;;;;;65.90;18.67;;;;;;;-0.62;100.00;92677.63;4908780;29;20082;-86
2021/12/09 05:09:37;;;;;;;185.75;22.00;;;;;;;-0.73;100.00;92677.50;4908594;29;20388;-86
2021/12/09 05:12:04;;;;;;;56.65;17.35;;;;;;;-0.57;100.00;92675.16;4925104;29;20047;-86
2021/12/09 05:14:29;;;;;;;50.95;15.90;;;;;;;-0.44;100.00;92679.91;4923188;29;20031;-86
2021/12/09 05:16:55;;;;;;;62.40;17.42;;;;;;;-0.45;100.00;92693.78;4908296;29;20114;-86
2021/12/09 05:19:21;;;;;;;137.32;18.90;;;;;;;-0.52;100.00;92694.97;4924179;29;20070;-86
2021/12/09 05:21:47;;;;;;;49.05;16.05;;;;;;;-0.85;100.00;92697.44;4924008;29;20114;-86
2021/12/09 05:24:13;;;;;;;54.42;16.73;;;;;;;-0.71;100.00;92690.13;4923928;29;20050;-86
2021/12/09 05:26:45;;;;;;;56.97;18.02;;;;;;;-0.65;100.00;92696.13;4940022;29;20032;-86
2021/12/09 05:29:12;;;;;;;59.40;18.73;;;;;;;-0.67;100.00;92700.72;4939798;29;20090;-86
2021/12/09 05:34:22;;;;;;;55.67;18.85;;;;;;;-0.19;100.00;92698.47;4926464;29;20039;-88
2021/12/09 05:36:48;;;;;;;54.60;17.88;;;;;;;-0.08;100.00;92702.69;4924189;29;20032;-87
2021/12/09 05:39:14;;;;;;;254.43;23.70;;;;;;;-0.16;100.00;92703.88;4908376;29;20032;-88
2021/12/09 05:41:41;;;;;;;194.73;22.20;;;;;;;-0.22;100.00;92701.50;4923638;29;20035;-87
2021/12/09 05:44:08;;;;;;;662.50;40.22;;;;;;;-0.58;100.00;92709.56;4923778;29;20039;-87
2021/12/09 05:46:36;;;;;;;305.10;26.58;;;;;;;-0.69;100.00;92705.34;4923815;29;20088;-87
2021/12/09 05:49:02;;;;;;;109.22;19.58;;;;;;;-0.65;100.00;92716.69;4923634;29;20027;-87
2021/12/09 05:51:29;;;;;;;98.95;21.23;;;;;;;-0.29;100.00;92706.81;4923663;29;20031;-87
2021/12/09 05:53:55;;;;;;;69.88;20.50;;;;;;;-0.57;100.00;92706.78;4923640;29;20435;-86
2021/12/09 05:56:22;;;;;;;58.92;18.50;;;;;;;-0.45;100.00;92700.75;4907238;29;20024;-86
2021/12/09 05:58:47;;;;;;;384.02;32.35;;;;;;;-0.64;100.00;92706.19;4904399;29;20441;-86
2021/12/09 06:01:13;;;;;;;82.63;20.67;;;;;;;-0.87;100.00;92702.78;4904304;29;20031;-86
2021/12/09 06:03:38;;;;;;;232.13;21.95;;;;;;;-0.81;100.00;92708.78;4888865;29;20030;-86
2021/12/09 06:06:04;;;;;;;70.85;20.05;;;;;;;-0.41;100.00;92713.91;4904204;29;20039;-85
2021/12/09 06:08:30;;;;;;;86.60;20.20;;;;;;;-0.59;100.00;92701.09;4904557;29;20028;-87
2021/12/09 06:10:55;;;;;;;69.28;20.83;;;;;;;-0.44;100.00;92705.63;4888994;29;20028;-86
2021/12/09 06:13:25;;;;;;;95.50;20.23;;;;;;;-0.31;100.00;92711.44;4925685;29;20020;-86
2021/12/09 06:15:51;;;;;;;193.20;24.52;;;;;;;-0.35;100.00;92708.59;4939786;29;20024;-86
2021/12/09 06:18:17;;;;;;;236.45;23.83;;;;;;;-0.75;100.00;92702.69;4922644;29;20072;-86
2021/12/09 06:20:43;;;;;;;122.15;21.25;;;;;;;-0.86;100.00;92703.59;4938172;29;20365;-86
2021/12/09 06:23:08;;;;;;;66.90;20.73;;;;;;;-0.66;100.00;92697.13;4922459;29;20034;-86
2021/12/09 06:25:34;;;;;;;63.63;18.42;;;;;;;-0.49;100.00;92708.16;4921813;29;20151;-86
2021/12/09 06:27:59;;;;;;;240.07;25.52;;;;;;;-0.50;100.00;92716.88;4911633;29;20027;-86
2021/12/09 06:30:25;;;;;;;149.52;20.52;;;;;;;-0.47;100.00;92724.13;4920321;29;20043;-86
2021/12/09 06:32:51;;;;;;;72.97;20.45;;;;;;;-0.72;100.00;92709.16;4903717;29;20093;-86
2021/12/09 06:35:18;;;;;;;63.83;18.42;;;;;;;-0.67;100.00;92716.16;4887824;29;20035;-86
2021/12/09 06:37:45;;;;;;;49.80;15.73;;;;;;;-0.72;100.00;92717.66;4903534;29;20179;-86
2021/12/09 06:40:19;;;;;;;62.08;21.25;;;;;;;-0.52;100.00;92716.34;4888437;29;20140;-86
2021/12/09 06:42:46;;;;;;;99.80;41.05;;;;;;;-0.40;100.00;92713.66;4887745;29;20599;-86
2021/12/09 06:45:12;;;;;;;79.53;20.75;;;;;;;-0.67;100.00;92721.31;4903592;29;20024;-86
2021/12/09 06:47:39;;;;;;;110.30;22.48;;;;;;;-0.93;100.00;92713.25;4919093;29;20028;-86
2021/12/09 06:50:06;;;;;;;53.08;17.75;;;;;;;-0.95;100.00;92726.31;4903396;29;20039;-86
2021/12/09 06:52:32;;;;;;;82.43;25.65;;;;;;;-0.70;100.00;92727.69;4903531;29;20050;-87
2021/12/09 06:54:57;;;;;;;645.05;42.75;;;;;;;-1.10;100.00;92732.03;4912215;29;20489;-86
2021/12/09 06:57:23;;;;;;;280.50;26.42;;;;;;;-0.92;100.00;92738.75;4903401;29;20035;-86
2021/12/09 06:59:48;;;;;;;171.73;41.30;;;;;;;-0.69;100.00;92733.63;4903313;29;20024;-86
2021/12/09 07:02:14;;;;;;;166.02;28.77;;;;;;;-0.50;100.00;92736.69;4887984;29;20338;-86
2021/12/09 07:04:39;;;;;;;420.25;34.13;;;;;;;-0.97;100.00;92725.03;4903475;29;20127;-86
2021/12/09 07:07:05;;;;;;;51.30;18.25;;;;;;;-0.66;100.00;92723.63;4903306;29;20118;-86
2021/12/09 07:09:31;;;;;;;312.45;74.25;;;;;;;-0.69;100.00;92729.25;4903422;29;20036;-87
2021/12/09 07:11:57;;;;;;;114.22;32.95;;;;;;;-0.47;100.00;92726.69;4887955;29;20036;-86
2021/12/09 07:14:23;;;;;;;178.82;36.80;;;;;;;-0.65;100.00;92735.47;4920162;29;20035;-86
2021/12/09 07:16:48;;;;;;;120.95;26.38;;;;;;;-0.85;100.00;92736.00;4903232;29;20028;-86
2021/12/09 07:19:14;;;;;;;275.27;28.23;;;;;;;-0.86;100.00;92732.63;4903223;29;20032;-86
2021/12/09 07:21:39;;;;;;;68.35;20.70;;;;;;;-0.62;100.00;92744.50;4887863;29;20032;-86
2021/12/09 07:24:05;;;;;;;77.78;23.70;;;;;;;-0.71;100.00;92749.28;4887548;29;20051;-86
2021/12/09 07:26:32;;;;;;;110.63;26.15;;;;;;;-0.61;100.00;92752.00;4887688;29;20028;-86
2021/12/09 07:28:58;;;;;;;62.30;21.95;;;;;;;-0.46;100.00;92753.97;4887952;29;20337;-86
2021/12/09 07:31:24;;;;;;;80.20;24.95;;;;;;;-0.26;100.00;92749.34;4920136;29;20036;-86
2021/12/09 07:33:55;;;;;;;65.90;20.75;;;;;;;-0.21;100.00;92752.75;4918627;29;20134;-86
2021/12/09 07:36:21;;;;;;;48.92;16.30;;;;;;;-0.14;100.00;92744.84;4918845;29;20028;-86
2021/12/09 07:38:46;;;;;;;52.92;17.70;;;;;;;-0.37;100.00;92741.47;4889868;29;20028;-86
2021/12/09 07:41:13;;;;;;;53.67;17.90;;;;;;;-0.32;100.00;92748.50;4891354;29;20497;-86
2021/12/09 07:43:39;;;;;;;102.60;18.83;;;;;;;-0.57;100.00;92757.47;4891312;29;20064;-87
2021/12/09 07:46:05;;;;;;;53.30;17.20;;;;;;;-0.39;100.00;92763.34;4891276;29;20031;-86
2021/12/09 07:48:30;;;;;;;56.60;18.10;;;;;;;-0.49;100.00;92764.75;4906666;29;20040;-86
2021/12/09 07:50:56;;;;;;;39.53;16.13;;;;;;;-0.65;100.00;92771.47;4906530;29;20028;-86
2021/12/09 07:53:22;;;;;;;52.75;17.17;;;;;;;-0.21;100.00;92778.50;4923383;29;20028;-87
2021/12/09 07:55:49;;;;;;;45.67;16.70;;;;;;;-0.13;100.00;92776.53;4906940;29;20111;-86
2021/12/09 07:58:14;;;;;;;46.92;15.85;;;;;;;-0.03;100.00;92776.63;4906467;29;20027;-87
2021/12/09 08:00:40;;;;;;;38.80;16.38;;;;;;;-0.18;100.00;92769.53;4906749;29;20448;-87
2021/12/09 08:03:05;;;;;;;41.72;17.13;;;;;;;0.23;100.00;92769.19;4923657;29;20095;-86
2021/12/09 08:05:33;;;;;;;45.53;16.38;;;;;;;0.30;100.00;92779.31;4923240;29;20024;-86
2021/12/09 08:07:58;;;;;;;43.65;15.68;;;;;;;0.49;100.00;92779.75;4906392;29;20028;-86
2021/12/09 08:10:24;;;;;;;43.38;15.32;;;;;;;0.36;100.00;92775.75;4922240;29;20035;-86
2021/12/09 08:12:50;;;;;;;33.63;13.85;;;;;;;-0.06;100.00;92784.84;4906138;29;20079;-86
2021/12/09 08:15:17;;;;;;;211.07;19.90;;;;;;;-0.25;100.00;92786.91;4906330;29;20024;-86
2021/12/09 08:20:11;;;;;;;59.60;23.60;;;;;;;-0.15;100.00;92794.78;4906068;29;20020;-86
2021/12/09 08:22:37;;;;;;;83.63;31.52;;;;;;;0.13;100.00;92795.63;4906033;29;20056;-86
2021/12/09 08:25:04;;;;;;;52.38;18.30;;;;;;;-0.02;100.00;92796.22;4890625;29;20068;-86
2021/12/09 08:27:29;;;;;;;44.45;15.77;;;;;;;0.17;100.00;92795.91;4905890;29;20028;-86
2021/12/09 08:29:55;;;;;;;206.82;23.52;;;;;;;-0.11;100.00;92803.56;4905713;29;20035;-86
2021/12/09 08:32:20;;;;;;;603.95;39.50;;;;;;;-0.38;100.00;92806.06;4890231;29;20032;-86
2021/12/09 08:34:46;;;;;;;89.28;16.88;;;;;;;-0.40;100.00;92818.41;4890222;29;20032;-90
2021/12/09 08:37:12;;;;;;;40.35;15.20;;;;;;;-0.38;100.00;92813.78;4926384;29;20036;-87
2021/12/09 08:39:37;;;;;;;40.72;15.52;;;;;;;-0.22;100.00;92825.03;4916457;29;20342;-86
2021/12/09 08:42:03;;;;;;;44.67;16.15;;;;;;;-0.03;100.00;92820.41;4910683;29;20068;-86
2021/12/09 08:44:29;;;;;;;41.38;15.90;;;;;;;0.19;100.00;92819.63;4922560;29;20024;-87
2021/12/09 08:46:54;;;;;;;37.78;13.95;;;;;;;0.43;100.00;92820.16;4923161;29;20040;-86
2021/12/09 08:49:20;;;;;;;30.85;12.93;;;;;;;0.37;100.00;92816.75;4890124;29;20030;-86
2021/12/09 08:51:46;;;;;;;32.05;13.05;;;;;;;0.47;100.00;92818.63;4890198;29;20028;-86
2021/12/09 08:54:12;;;;;;;31.13;14.00;;;;;;;0.39;100.00;92825.00;4921406;29;20028;-86
2021/12/09 08:56:37;;;;;;;49.50;19.38;;;;;;;0.51;100.00;92826.66;4890170;29;20024;-86
2021/12/09 08:59:05;;;;;;;41.65;16.63;;;;;;;0.43;100.00;92830.47;4905612;29;20024;-86
2021/12/09 09:01:33;;;;;;;39.38;15.25;;;;;;;0.83;100.00;92837.03;4905534;29;20034;-86
2021/12/09 09:03:58;;;;;;;89.22;16.50;;;;;;;0.75;100.00;92834.88;4905417;29;20028;-86
2021/12/09 09:06:24;;;;;;;199.00;21.25;;;;;;;-0.05;100.00;92843.84;4905292;29;20035;-86
2021/12/09 09:08:51;;;;;;;37.75;14.48;;;;;;;-0.09;100.00;92847.13;4905142;29;20032;-86
2021/12/09 09:11:17;;;;;;;34.67;14.68;;;;;;;-0.01;100.00;92855.19;4905442;29;20040;-86
2021/12/09 09:13:43;;;;;;;39.53;14.80;;;;;;;-0.05;100.00;92858.47;4905233;29;20036;-86
2021/12/09 09:16:09;;;;;;;45.33;19.23;;;;;;;-0.01;100.00;92851.84;4905215;29;20386;-86
2021/12/09 09:18:34;;;;;;;34.53;13.98;;;;;;;0.60;100.00;92851.00;4905469;29;20426;-86
2021/12/09 09:21:00;;;;;;;36.88;13.60;;;;;;;0.84;100.00;92851.50;4905201;29;20107;-86
2021/12/09 09:23:25;;;;;;;32.35;13.73;;;;;;;0.66;100.00;92851.84;4921875;29;20035;-86
2021/12/09 09:25:51;;;;;;;43.45;13.65;;;;;;;0.89;100.00;92857.72;4921970;29;20028;-86
2021/12/09 09:28:17;;;;;;;58.20;14.23;;;;;;;1.12;100.00;92854.03;4921820;29;20035;-86
2021/12/09 09:30:48;;;;;;;47.05;19.85;;;;;;;1.05;100.00;92850.91;4889522;29;20024;-86
2021/12/09 09:33:15;;;;;;;48.90;18.98;;;;;;;0.74;100.00;92856.53;4905270;29;20032;-86
2021/12/09 09:35:41;;;;;;;115.00;16.45;;;;;;;0.62;100.00;92856.69;4904830;29;20032;-87
2021/12/09 09:38:07;;;;;;;151.95;19.38;;;;;;;0.67;100.00;92859.31;4904842;29;20353;-86
2021/12/09 09:40:49;;;;;;;37.85;14.05;;;;;;;0.91;100.00;92860.81;4905063;29;20043;-86
2021/12/09 09:43:43;;;;;;;245.15;66.28;;;;;;;1.23;100.00;92853.09;4889551;29;20032;-86
2021/12/09 09:46:10;;;;;;;177.77;40.88;;;;;;;1.65;100.00;92854.19;4902720;29;20034;-86
2021/12/09 09:48:36;;;;;;;47.30;16.58;;;;;;;0.94;100.00;92853.38;4904733;29;20460;-86
2021/12/09 09:51:02;;;;;;;141.00;39.05;;;;;;;1.16;100.00;92862.88;4889094;29;20434;-86
2021/12/09 09:53:28;;;;;;;229.10;57.97;;;;;;;1.11;100.00;92865.38;4904419;29;20032;-86
2021/12/09 09:55:54;;;;;;;350.95;75.13;;;;;;;1.49;100.00;92862.84;4904598;29;20032;-86
2021/12/09 09:58:20;;;;;;;245.55;53.20;;;;;;;1.59;100.00;92865.50;4904453;29;20067;-86
2021/12/09 10:00:46;;;;;;;107.60;30.45;;;;;;;1.61;100.00;92863.44;4888488;29;20429;-86
2021/12/09 10:03:16;;;;;;;235.13;34.13;;;;;;;1.39;100.00;92866.13;4904205;29;20123;-86
2021/12/09 10:05:46;;;;;;;34.90;12.55;;;;;;;1.42;100.00;92857.88;4905053;29;20031;-86
2021/12/09 10:08:13;;;;;;;62.88;15.60;;;;;;;1.41;100.00;92862.28;4904170;29;20099;-86
2021/12/09 10:10:40;;;;;;;36.83;14.38;;;;;;;1.58;100.00;92858.78;4888517;29;20042;-86
2021/12/09 10:13:08;;;;;;;78.13;24.35;;;;;;;0.92;100.00;92854.63;4904199;29;20032;-86
2021/12/09 10:15:35;;;;;;;40.88;15.82;;;;;;;1.30;100.00;92858.06;4904282;29;20028;-87
2021/12/09 10:18:00;;;;;;;34.22;12.88;;;;;;;0.87;100.00;92857.19;4904143;29;20319;-86
2021/12/09 10:20:46;;;;;;;140.05;42.63;;;;;;;0.71;100.00;92849.28;4904095;29;20075;-86
2021/12/09 10:23:51;;;;;;;220.15;68.10;;;;;;;0.93;100.00;92853.59;4903873;29;20024;-86
2021/12/09 10:26:18;;;;;;;66.40;21.00;;;;;;;0.89;100.00;92857.72;4867327;29;20112;-86
2021/12/09 10:29:06;;;;;;;18.00;9.00;;;;;;;1.04;100.00;92857.84;4920805;29;20438;-86
2021/12/09 10:31:43;;;;;;;27.08;10.73;;;;;;;1.07;100.00;92861.75;4896229;29;20079;-86
2021/12/09 10:36:54;;;;;;;138.73;47.83;;;;;;;0.62;100.00;92861.84;4903792;29;20374;-86
2021/12/09 10:39:46;;;;;;;54.13;20.52;;;;;;;0.83;100.00;92864.63;4920805;29;20130;-86
2021/12/09 10:42:16;;;;;;;277.10;97.10;;;;;;;1.10;100.00;92864.63;4886818;29;20052;-86
2021/12/09 10:44:48;;;;;;;25.75;12.15;;;;;;;1.08;100.00;92858.13;4920373;29;20032;-86
2021/12/09 10:47:50;;;;;;;57.47;22.17;;;;;;;1.00;100.00;92859.38;4888212;29;20123;-86
2021/12/09 10:50:22;;;;;;;47.10;12.55;;;;;;;0.94;100.00;92857.78;4899664;29;20122;-86
2021/12/09 10:52:52;;;;;;;16.75;8.48;;;;;;;0.78;100.00;92857.59;4905144;29;20028;-86
2021/12/09 10:55:23;;;;;;;19.20;9.23;;;;;;;0.87;100.00;92859.75;4888486;29;20040;-86
2021/12/09 10:58:09;;;;;;;122.72;44.80;;;;;;;1.23;100.00;92865.25;4903802;29;20090;-86
2021/12/09 11:00:55;;;;;;;16.98;8.05;;;;;;;1.01;100.00;92857.56;4903584;29;20032;-86
2021/12/09 11:03:28;;;;;;;99.13;34.33;;;;;;;1.66;100.00;92857.53;4908302;29;20040;-86
2021/12/09 11:06:15;;;;;;;27.77;10.65;;;;;;;1.02;100.00;92861.72;4906396;29;20067;-86
2021/12/09 11:08:44;;;;;;;52.45;20.17;;;;;;;1.54;100.00;92863.66;4909299;29;20129;-87
2021/12/09 11:11:11;;;;;;;78.65;30.73;;;;;;;1.18;100.00;92858.22;4911084;29;20032;-86
2021/12/09 11:13:51;;;;;;;82.13;30.63;;;;;;;1.49;100.00;92868.00;4914029;29;20028;-86
2021/12/09 11:16:23;;;;;;;46.75;19.42;;;;;;;1.91;100.00;92866.47;4926383;29;20467;-86
2021/12/09 11:18:49;;;;;;;74.90;29.92;;;;;;;2.15;100.00;92860.91;4926286;29;20051;-86
2021/12/09 11:21:30;;;;;;;48.63;21.83;;;;;;;2.29;100.00;92861.22;4942177;29;20028;-86
2021/12/09 11:24:04;;;;;;;59.30;24.13;;;;;;;2.33;100.00;92857.91;4926506;29;20114;-86
2021/12/09 11:29:18;;;;;;;26.45;12.55;;;;;;;1.83;100.00;92854.81;4927793;29;20036;-86
2021/12/09 11:32:07;;;;;;;28.40;11.52;;;;;;;1.49;100.00;92853.31;4942960;29;20047;-86
2021/12/09 11:35:01;;;;;;;26.23;11.75;;;;;;;1.77;100.00;92856.59;4926112;29;21055;-86
2021/12/09 11:40:06;;;;;;;135.32;15.40;;;;;;;1.57;100.00;92856.44;4926259;29;20334;-86
2021/12/09 11:42:39;;;;;;;31.83;13.25;;;;;;;1.92;100.00;92861.03;4942651;29;20028;-86
2021/12/09 11:45:07;;;;;;;50.65;23.65;;;;;;;2.07;100.00;92860.34;4926829;29;20384;-86
2021/12/09 11:47:33;;;;;;;32.80;12.70;;;;;;;1.68;100.00;92864.03;4925711;29;20079;-86
2021/12/09 11:49:58;;;;;;;20.95;9.90;;;;;;;1.36;100.00;92869.22;4925620;29;20036;-86
2021/12/09 11:52:24;;;;;;;23.80;11.27;;;;;;;1.58;100.00;92856.19;4925577;29;20036;-86
2021/12/09 11:55:01;;;;;;;25.00;12.20;;;;;;;1.64;100.00;92867.34;4925667;29;20114;-86
2021/12/09 11:58:18;;;;;;;20.95;9.35;;;;;;;1.55;100.00;92875.53;4927207;29;20082;-86
2021/12/09 12:13:02;;;;;;;25.63;11.65;;;;;;;1.55;100.00;92909.09;4927926;29;20128;-86
2021/12/09 12:20:52;;;;;;;645.50;34.85;;;;;;;1.32;100.00;92912.00;4925479;29;20031;-86
2021/12/09 12:24:21;;;;;;;47.03;19.13;;;;;;;1.25;100.00;92907.81;4926208;29;20120;-86
2021/12/09 12:32:43;;;;;;;18.02;8.88;;;;;;;0.99;100.00;92905.00;4927812;29;20110;-86
2021/12/09 12:40:40;;;;;;;15.63;8.07;;;;;;;0.92;100.00;92904.44;4930437;29;20375;-86
2021/12/09 12:43:18;;;;;;;;;;;;;;;1.15;100.00;92906.97;4941925;29;20031;-86
2021/12/09 12:48:42;;;;;;;11.80;6.25;;;;;;;1.20;100.00;92912.94;4907433;29;20039;-86
2021/12/09 12:51:29;;;;;;;12.65;6.75;;;;;;;0.92;100.00;92914.75;4936728;29;20028;-86
2021/12/09 12:54:24;;;;;;;16.25;8.60;;;;;;;0.83;100.00;92916.97;4924842;29;20345;-86
2021/12/09 12:56:56;;;;;;;15.35;8.50;;;;;;;1.02;100.00;92911.47;4936653;29;20055;-86
2021/12/09 12:59:24;;;;;;;13.73;7.07;;;;;;;1.01;100.00;92914.31;4911017;29;20039;-86
2021/12/09 13:02:15;;;;;;;23.23;12.52;;;;;;;1.27;100.00;92913.50;4923287;29;20060;-85
2021/12/09 13:05:11;;;;;;;17.45;8.40;;;;;;;1.69;100.00;92922.38;4921197;29;20073;-86
2021/12/09 13:16:26;;;;;;;81.35;12.05;;;;;;;1.58;100.00;92923.31;4921995;29;20079;-86
2021/12/09 13:21:34;;;;;;;19.95;10.38;;;;;;;0.95;100.00;92928.97;4905484;29;20145;-86
2021/12/09 13:24:19;;;;;;;36.63;16.95;;;;;;;1.33;100.00;92926.47;4905015;29;20035;-86
2021/12/09 13:27:07;;;;;;;23.42;10.60;;;;;;;1.73;100.00;92933.00;4921813;29;20036;-86
2021/12/09 13:29:55;;;;;;;81.68;12.63;;;;;;;1.30;100.00;92934.72;4935903;29;20039;-86
2021/12/09 13:35:32;;;;;;;22.42;10.82;;;;;;;1.54;100.00;92941.09;4939949;29;20083;-86
2021/12/09 13:48:57;;;;;;;26.58;10.52;;;;;;;0.81;100.00;92962.84;4939290;29;20046;-86
2021/12/09 13:56:46;;;;;;;20.85;10.13;;;;;;;1.24;100.00;92957.88;4938886;29;20028;-86
2021/12/09 13:59:16;;;;;;;25.80;11.93;;;;;;;0.92;100.00;92966.31;4922386;29;20027;-86
2021/12/09 14:01:42;;;;;;;22.88;10.60;;;;;;;0.70;100.00;92963.75;4907702;29;20028;-86
2021/12/09 14:04:08;;;;;;;20.10;9.98;;;;;;;1.01;100.00;92963.31;4907533;29;20027;-86
2021/12/09 14:06:33;;;;;;;19.67;10.30;;;;;;;0.98;100.00;92970.50;4922303;29;20027;-86
2021/12/09 14:08:59;;;;;;;15.60;9.25;;;;;;;0.73;100.00;92972.81;4907122;29;20039;-86